Time;durP1;ratioP1;P1;durP2;ratioP2;P2;SDS_P1;SDS_P2;PMS_P1;PMS_P2;Temp;Humidity;BMP_temperature;BMP_pressure;BME280_temperature;BME280_humidity;BME280_pressure;Samples;Min_cycle;Max_cycle;Signal;HPM_P1;HPM_P2
2021/04/13 00:01:12;;;;;;;12.37;2.17;;;;;;;23.58;39.60;99931.38;4482787;31;34498;-56
2021/04/13 00:04:03;;;;;;;9.93;2.80;;;;;;;23.57;39.67;99920.72;4476181;32;33936;-56
2021/04/13 00:06:45;;;;;;;8.93;2.53;;;;;;;23.54;39.63;99922.00;4484222;32;33690;-57
2021/04/13 00:09:17;;;;;;;7.93;2.70;;;;;;;23.55;39.65;99920.97;4482590;32;33348;-57
2021/04/13 00:11:46;;;;;;;8.07;2.28;;;;;;;23.53;39.66;99914.06;4481754;32;35233;-50
2021/04/13 00:14:16;;;;;;;11.60;2.40;;;;;;;23.51;39.58;99924.34;4484532;32;33726;-57
2021/04/13 00:16:43;;;;;;;7.90;2.25;;;;;;;23.51;39.73;99908.84;4484429;32;33413;-56
2021/04/13 00:19:10;;;;;;;11.85;2.28;;;;;;;23.52;39.64;99907.78;4480371;32;33224;-54
2021/04/13 00:21:39;;;;;;;11.23;2.72;;;;;;;23.51;39.67;99911.56;4467704;32;33883;-55
2021/04/13 00:24:13;;;;;;;16.30;2.70;;;;;;;23.50;39.73;99915.34;4473733;32;33651;-54
2021/04/13 00:26:45;;;;;;;9.73;2.40;;;;;;;23.52;39.71;99913.22;4474565;31;34421;-56
2021/04/13 00:29:12;;;;;;;11.12;2.20;;;;;;;23.49;39.74;99905.50;4479160;32;34360;-55
2021/04/13 00:34:33;;;;;;;7.00;2.58;;;;;;;23.48;39.84;99906.56;4469127;32;33483;-57
2021/04/13 00:37:23;;;;;;;11.52;2.60;;;;;;;23.48;39.81;99911.19;4467778;32;33633;-54
2021/04/13 00:39:51;;;;;;;9.07;2.50;;;;;;;23.49;39.76;99904.66;4467035;32;34075;-55
2021/04/13 00:42:27;;;;;;;7.10;2.20;;;;;;;23.47;39.83;99906.78;4466937;32;33909;-54
2021/04/13 00:44:58;;;;;;;11.50;2.65;;;;;;;23.46;39.90;99903.25;4473338;32;33525;-56
2021/04/13 00:47:31;;;;;;;9.30;2.20;;;;;;;23.44;39.97;99910.78;4467024;32;33646;-56
2021/04/13 00:50:03;;;;;;;7.35;1.90;;;;;;;23.44;39.84;99902.63;4466698;32;33272;-57
2021/04/13 00:52:40;;;;;;;6.07;2.10;;;;;;;23.44;39.70;99905.34;4467261;32;34043;-56
2021/04/13 00:55:09;;;;;;;7.28;2.15;;;;;;;23.44;39.96;99910.78;4470123;31;33903;-52
2021/04/13 00:57:42;;;;;;;6.78;2.17;;;;;;;23.42;39.72;99900.13;4467540;32;32274;-56
2021/04/13 01:00:25;;;;;;;5.95;1.98;;;;;;;23.45;39.74;99908.87;4470936;32;33266;-54
2021/04/13 01:02:57;;;;;;;7.40;2.05;;;;;;;23.44;39.55;99902.63;4454576;32;33715;-58
2021/04/13 01:05:54;;;;;;;6.03;2.50;;;;;;;23.42;39.87;99899.31;4466533;31;34927;-54
2021/04/13 01:08:28;;;;;;;9.07;2.40;;;;;;;23.42;39.88;99900.13;4468762;32;33624;-56
2021/04/13 01:10:58;;;;;;;6.10;2.28;;;;;;;23.41;39.91;99895.75;4478267;32;33382;-54
2021/04/13 01:13:44;;;;;;;11.05;2.35;;;;;;;23.41;39.90;99905.81;4484234;32;33807;-57
2021/04/13 01:16:11;;;;;;;10.65;2.17;;;;;;;23.43;39.79;99900.97;4470367;31;33862;-55
2021/04/13 01:18:41;;;;;;;8.63;1.80;;;;;;;23.40;39.99;99893.22;4482778;32;33644;-59
2021/04/13 01:21:30;;;;;;;11.50;2.30;;;;;;;23.38;39.96;99893.47;4479713;32;32979;-57
2021/04/13 01:24:07;;;;;;;7.40;1.95;;;;;;;23.39;39.95;99888.84;4467837;32;34354;-54
2021/04/13 01:26:35;;;;;;;6.55;2.10;;;;;;;23.38;39.91;99885.28;4471062;31;33930;-53
2021/04/13 01:29:03;;;;;;;9.93;2.55;;;;;;;23.38;39.97;99870.84;4469189;32;33724;-53
2021/04/13 01:31:49;;;;;;;8.85;2.15;;;;;;;23.37;39.95;99870.03;4467256;32;34125;-55
2021/04/13 01:34:34;;;;;;;7.20;2.12;;;;;;;23.37;40.02;99863.75;4470362;32;33694;-54
2021/04/13 01:37:13;;;;;;;15.48;2.35;;;;;;;23.37;39.96;99861.03;4483992;32;34002;-56
2021/04/13 01:39:54;;;;;;;8.93;2.28;;;;;;;23.35;39.91;99860.41;4479486;32;31818;-55
2021/04/13 01:42:25;;;;;;;5.75;2.20;;;;;;;23.36;39.86;99870.22;4466941;32;33006;-57
2021/04/13 01:44:56;;;;;;;5.43;1.77;;;;;;;23.34;39.96;99870.44;4464634;32;33848;-54
2021/04/13 01:47:24;;;;;;;9.88;2.42;;;;;;;23.34;39.71;99875.06;4474431;32;33928;-53
2021/04/13 01:49:53;;;;;;;6.97;1.58;;;;;;;23.34;39.89;99875.91;4453782;32;34356;-53
2021/04/13 01:52:25;;;;;;;10.43;2.40;;;;;;;23.34;39.60;99875.91;4480411;31;33366;-53
2021/04/13 01:54:52;;;;;;;12.05;2.30;;;;;;;23.35;39.93;99865.84;4477836;32;33975;-57
2021/04/13 01:57:29;;;;;;;8.68;2.62;;;;;;;23.34;39.87;99858.72;4480537;32;34661;-55
2021/04/13 02:00:24;;;;;;;5.90;1.98;;;;;;;23.34;39.95;99862.28;4483004;32;34818;-51
2021/04/13 02:02:57;;;;;;;10.63;2.50;;;;;;;23.35;39.91;99860.41;4481758;32;32968;-56
2021/04/13 02:05:28;;;;;;;7.47;2.17;;;;;;;23.33;39.96;99857.06;4484674;31;34548;-56
2021/04/13 02:08:05;;;;;;;6.65;1.83;;;;;;;23.32;39.85;99852.69;4454578;32;33906;-56
2021/04/13 02:10:37;;;;;;;7.35;1.77;;;;;;;23.30;39.74;99852.91;4460805;32;33746;-55
2021/04/13 02:13:07;;;;;;;8.13;1.90;;;;;;;23.30;39.76;99854.78;4466522;32;33008;-55
2021/04/13 02:15:51;;;;;;;6.35;2.35;;;;;;;23.29;39.82;99845.78;4461081;32;33859;-55
2021/04/13 02:18:20;;;;;;;5.62;1.95;;;;;;;23.32;39.64;99861.69;4465083;32;34692;-54
2021/04/13 02:20:48;;;;;;;6.80;1.85;;;;;;;23.29;39.83;99864.84;4481271;32;34535;-50
2021/04/13 02:23:21;;;;;;;6.25;2.47;;;;;;;23.29;39.68;99862.13;4468241;32;33064;-57
2021/04/13 02:25:48;;;;;;;8.18;2.30;;;;;;;23.29;39.73;99878.47;4481976;32;34599;-54
2021/04/13 02:28:16;;;;;;;7.05;2.10;;;;;;;23.28;39.72;99871.34;4483655;32;33664;-53
2021/04/13 02:30:46;;;;;;;6.97;1.77;;;;;;;23.29;39.92;99880.34;4483951;32;33451;-56
2021/04/13 02:33:22;;;;;;;;;;;;;;;23.27;40.10;99866.13;4468011;32;33918;-53
2021/04/13 02:35:49;;;;;;;5.80;1.92;;;;;;;23.37;39.81;99855.56;4479766;32;34093;-57
2021/04/13 02:38:19;;;;;;;4.55;1.70;;;;;;;23.28;39.93;99846.84;4483739;32;33901;-56
2021/04/13 02:41:01;;;;;;;7.00;1.70;;;;;;;23.25;39.95;99827.41;4460610;32;34659;-53
2021/04/13 02:43:35;;;;;;;9.10;2.20;;;;;;;23.25;40.12;99830.97;4469253;32;33526;-54
2021/04/13 02:46:06;;;;;;;7.93;1.73;;;;;;;23.23;40.16;99832.25;4479251;32;34984;-54
2021/04/13 02:48:40;;;;;;;6.53;1.80;;;;;;;23.22;40.19;99825.97;4467613;32;32814;-55
2021/04/13 02:51:09;;;;;;;7.12;2.12;;;;;;;23.22;40.14;99822.41;4459425;32;33927;-52
2021/04/13 02:53:41;;;;;;;7.57;1.98;;;;;;;23.21;40.17;99820.75;4483199;32;33844;-54
2021/04/13 02:56:42;;;;;;;3.73;1.47;;;;;;;23.24;39.92;99825.75;4484586;32;33569;-56
2021/04/13 02:59:12;;;;;;;7.35;2.20;;;;;;;23.24;40.05;99820.31;4485020;32;34165;-55
2021/04/13 03:01:56;;;;;;;8.30;1.83;;;;;;;23.21;40.09;99816.13;4469407;32;34183;-53
2021/04/13 03:04:23;;;;;;;8.20;2.40;;;;;;;23.21;40.13;99828.91;4457358;32;33246;-54
2021/04/13 03:06:52;;;;;;;7.10;2.10;;;;;;;23.20;40.18;99817.19;4470601;32;33685;-51
2021/04/13 03:09:21;;;;;;;7.65;2.35;;;;;;;23.19;40.11;99798.38;4482775;32;34524;-54
2021/04/13 03:12:09;;;;;;;7.82;1.95;;;;;;;23.19;40.17;99801.09;4471723;32;33898;-55
2021/04/13 03:14:45;;;;;;;5.37;1.70;;;;;;;23.21;39.99;99804.41;4470763;32;33355;-50
2021/04/13 03:17:15;;;;;;;5.43;1.87;;;;;;;23.20;40.10;99802.75;4467676;32;33725;-51
2021/04/13 03:19:42;;;;;;;3.47;1.60;;;;;;;23.19;40.12;99796.47;4468008;32;34679;-54
2021/04/13 03:22:09;;;;;;;7.47;1.80;;;;;;;23.20;39.93;99803.59;4454984;32;33697;-54
2021/04/13 03:24:40;;;;;;;13.85;2.50;;;;;;;23.19;40.21;99793.75;4467792;32;34204;-52
2021/04/13 03:27:09;;;;;;;13.80;2.28;;;;;;;23.16;40.31;99795.03;4468115;32;33839;-53
2021/04/13 03:30:02;;;;;;;5.82;1.87;;;;;;;23.16;40.28;99808.63;4467879;32;33835;-56
2021/04/13 03:32:32;;;;;;;5.93;1.90;;;;;;;23.19;40.13;99796.47;4469085;32;33663;-55
2021/04/13 03:35:00;;;;;;;7.47;1.83;;;;;;;23.15;40.32;99798.81;4469969;32;33214;-58
2021/04/13 03:37:27;;;;;;;9.77;2.55;;;;;;;23.16;40.28;99792.31;4483487;32;34448;-53
2021/04/13 03:39:54;;;;;;;12.43;2.03;;;;;;;23.16;40.28;99805.91;4483029;32;33897;-54
2021/04/13 03:42:28;;;;;;;6.30;1.70;;;;;;;23.15;40.32;99823.31;4470196;32;33672;-55
2021/04/13 03:44:56;;;;;;;5.37;1.48;;;;;;;23.16;40.23;99813.25;4483448;32;33300;-55
2021/04/13 03:47:31;;;;;;;3.70;1.50;;;;;;;23.15;40.08;99811.59;4483385;32;34536;-57
2021/04/13 03:49:59;;;;;;;3.95;1.37;;;;;;;23.15;39.94;99814.31;4483383;32;33931;-53
2021/04/13 03:52:31;;;;;;;8.65;1.80;;;;;;;23.14;40.07;99816.22;4483549;32;34396;-54
2021/04/13 03:55:18;;;;;;;5.62;1.90;;;;;;;23.14;40.17;99808.03;4481023;32;34426;-55
2021/04/13 03:57:46;;;;;;;8.45;1.83;;;;;;;23.16;40.08;99807.81;4468864;32;34399;-56
2021/04/13 04:00:19;;;;;;;6.15;1.70;;;;;;;23.14;40.16;99809.94;4468840;32;33882;-55
2021/04/13 04:02:48;;;;;;;11.12;2.10;;;;;;;23.12;40.22;99823.75;4467683;32;34692;-56
2021/04/13 04:05:23;;;;;;;7.72;1.80;;;;;;;23.12;40.23;99812.03;4467502;32;33513;-56
2021/04/13 04:07:58;;;;;;;9.07;1.90;;;;;;;23.11;40.12;99802.22;4468715;32;33489;-55
2021/04/13 04:10:29;;;;;;;7.97;1.80;;;;;;;23.12;40.17;99803.87;4467639;32;33904;-56
2021/04/13 04:13:07;;;;;;;5.60;2.12;;;;;;;23.11;40.22;99805.75;4468713;32;33702;-53
2021/04/13 04:16:20;;;;;;;10.82;1.77;;;;;;;23.11;40.15;99805.75;4467370;32;33264;-56
2021/04/13 04:18:51;;;;;;;6.60;2.20;;;;;;;23.13;40.20;99814.56;4467723;32;34851;-56
2021/04/13 04:21:35;;;;;;;8.77;1.95;;;;;;;23.08;40.27;99817.13;4467802;32;33728;-54
2021/04/13 04:24:22;;;;;;;5.90;1.85;;;;;;;23.11;40.33;99813.09;4467642;32;34404;-57
2021/04/13 04:26:57;;;;;;;7.00;2.08;;;;;;;23.09;40.27;99809.78;4467385;32;33191;-56
2021/04/13 04:29:40;;;;;;;8.38;1.73;;;;;;;23.07;40.35;99815.44;4468704;32;33770;-51
2021/04/13 04:32:17;;;;;;;6.57;1.92;;;;;;;23.06;40.22;99808.31;4468581;32;33548;-56
2021/04/13 04:34:44;;;;;;;6.20;1.60;;;;;;;23.05;40.18;99803.94;4468771;32;33445;-53
2021/04/13 04:37:25;;;;;;;3.72;1.40;;;;;;;23.05;40.34;99806.66;4468563;32;33163;-55
2021/04/13 04:40:14;;;;;;;5.03;1.65;;;;;;;23.06;40.20;99819.22;4468686;32;33698;-57
2021/04/13 04:42:51;;;;;;;8.00;1.85;;;;;;;23.06;40.11;99811.03;4468605;32;34690;-58
2021/04/13 04:45:30;;;;;;;7.50;1.75;;;;;;;23.05;40.26;99822.16;4468548;32;33952;-52
2021/04/13 04:47:57;;;;;;;7.32;2.00;;;;;;;23.05;40.41;99827.59;4468577;32;33336;-54
2021/04/13 04:50:24;;;;;;;4.20;1.75;;;;;;;23.03;40.29;99835.97;4468607;32;34984;-55
2021/04/13 04:52:51;;;;;;;13.13;1.90;;;;;;;23.04;40.04;99836.84;4468437;32;34705;-55
2021/04/13 04:55:33;;;;;;;8.52;1.87;;;;;;;23.03;40.48;99838.69;4475917;32;33785;-56
2021/04/13 04:58:01;;;;;;;8.50;1.65;;;;;;;23.03;40.36;99846.84;4484243;32;33472;-57
2021/04/13 05:00:28;;;;;;;9.98;2.15;;;;;;;23.04;40.36;99848.56;4484344;32;34691;-56
2021/04/13 05:02:55;;;;;;;15.48;1.90;;;;;;;23.04;40.33;99848.56;4484355;32;33829;-55
2021/04/13 05:05:23;;;;;;;9.52;1.90;;;;;;;23.03;40.28;99840.59;4482759;32;34459;-54
2021/04/13 05:07:51;;;;;;;6.30;1.83;;;;;;;23.04;40.42;99854.00;4483724;32;34784;-55
2021/04/13 05:10:18;;;;;;;8.45;2.05;;;;;;;23.03;40.30;99846.84;4484072;32;34654;-53
2021/04/13 05:12:45;;;;;;;13.60;2.37;;;;;;;23.03;40.38;99844.12;4484027;32;33817;-57
2021/04/13 05:15:13;;;;;;;6.12;1.83;;;;;;;23.04;40.43;99831.38;4478789;32;33625;-57
2021/04/13 05:17:40;;;;;;;4.85;1.60;;;;;;;23.03;40.44;99824.25;4468657;32;33205;-54
2021/04/13 05:20:09;;;;;;;5.47;1.85;;;;;;;23.01;40.24;99824.50;4468207;32;33787;-51
2021/04/13 05:22:36;;;;;;;6.05;1.50;;;;;;;23.02;40.33;99826.16;4468222;32;35303;-53
2021/04/13 05:25:03;;;;;;;8.00;1.85;;;;;;;23.01;40.33;99819.06;4469956;32;33684;-51
2021/04/13 05:27:30;;;;;;;7.25;1.50;;;;;;;23.01;40.43;99819.06;4479292;32;34851;-58
2021/04/13 05:29:57;;;;;;;13.27;2.20;;;;;;;23.01;40.46;99820.94;4483848;32;33834;-56
2021/04/13 05:32:24;;;;;;;13.05;2.40;;;;;;;23.00;40.25;99827.44;4483771;32;33917;-59
2021/04/13 05:34:52;;;;;;;13.95;2.40;;;;;;;22.97;39.80;99834.16;4481039;32;33828;-59
2021/04/13 05:37:19;;;;;;;13.75;1.73;;;;;;;22.98;39.39;99834.97;4467964;32;33211;-59
2021/04/13 05:39:46;;;;;;;6.07;1.70;;;;;;;22.93;38.80;99835.66;4468089;32;34767;-51
2021/04/13 05:42:18;;;;;;;8.93;1.80;;;;;;;22.92;38.54;99840.25;4466454;32;33199;-54
2021/04/13 05:44:46;;;;;;;16.67;2.47;;;;;;;22.92;38.43;99847.59;4465431;32;34434;-51
2021/04/13 05:47:13;;;;;;;15.80;2.12;;;;;;;22.91;38.74;99852.22;4465943;32;34031;-53
2021/04/13 05:49:40;;;;;;;12.77;1.77;;;;;;;22.93;38.74;99843.81;4476700;32;32800;-54
2021/04/13 05:52:08;;;;;;;9.55;1.92;;;;;;;22.88;38.90;99852.59;4472952;32;33933;-49
2021/04/13 05:54:35;;;;;;;5.65;1.40;;;;;;;22.89;38.98;99835.25;4476982;32;34117;-53
2021/04/13 05:57:02;;;;;;;8.15;1.83;;;;;;;22.91;38.87;99832.34;4465224;32;35031;-54
2021/04/13 05:59:32;;;;;;;8.18;2.15;;;;;;;22.91;38.88;99827.72;4474419;32;34700;-52
2021/04/13 06:02:02;;;;;;;9.50;2.35;;;;;;;22.91;39.07;99826.88;4482685;32;33834;-55
2021/04/13 06:04:29;;;;;;;7.93;1.80;;;;;;;22.91;39.11;99819.56;4476827;32;33681;-54
2021/04/13 06:06:56;;;;;;;9.75;1.80;;;;;;;22.91;39.14;99819.56;4481899;32;33331;-52
2021/04/13 06:09:24;;;;;;;7.72;1.77;;;;;;;22.92;39.23;99823.94;4483307;32;33869;-52
2021/04/13 06:12:09;;;;;;;13.13;1.77;;;;;;;22.92;39.33;99820.38;4473629;32;34517;-55
2021/04/13 06:14:37;;;;;;;7.78;2.10;;;;;;;22.94;39.39;99820.16;4467132;32;33607;-50
2021/04/13 06:17:04;;;;;;;8.50;1.70;;;;;;;22.92;39.45;99810.34;4472605;32;33111;-53
2021/04/13 06:19:32;;;;;;;6.65;1.50;;;;;;;22.91;39.49;99808.69;4481549;32;33798;-54
2021/04/13 06:21:59;;;;;;;9.15;1.85;;;;;;;22.94;39.55;99815.53;4473060;32;35093;-51
2021/04/13 06:24:26;;;;;;;6.62;1.73;;;;;;;22.94;39.63;99826.44;4473545;32;33744;-55
2021/04/13 06:26:53;;;;;;;6.35;1.75;;;;;;;22.95;39.62;99827.28;4482518;32;33181;-54
2021/04/13 06:29:32;;;;;;;4.78;1.40;;;;;;;22.96;39.57;99812.63;4472883;32;33577;-54
2021/04/13 06:31:59;;;;;;;11.23;1.60;;;;;;;22.95;39.68;99800.06;4466953;32;33855;-53
2021/04/13 06:34:26;;;;;;;8.77;1.65;;;;;;;22.97;39.71;99809.66;4467187;32;33831;-50
2021/04/13 06:36:53;;;;;;;4.18;1.23;;;;;;;22.97;39.69;99817.00;4467371;32;34864;-51
2021/04/13 06:39:20;;;;;;;7.68;1.65;;;;;;;22.98;39.78;99822.22;4465634;32;34461;-49
2021/04/13 06:41:54;;;;;;;7.12;1.48;;;;;;;22.99;39.77;99812.16;4477143;32;33946;-51
2021/04/13 06:44:39;;;;;;;5.75;1.20;;;;;;;22.99;39.74;99814.88;4482964;32;34581;-49
2021/04/13 06:47:46;;;;;;;12.95;1.77;;;;;;;22.97;39.65;99820.53;4477030;32;33396;-52
2021/04/13 06:50:30;;;;;;;6.68;1.20;;;;;;;22.99;39.60;99813.00;4482174;32;33986;-48
2021/04/13 06:53:14;;;;;;;10.10;1.70;;;;;;;22.97;39.60;99806.12;4480561;32;33960;-50
2021/04/13 06:56:12;;;;;;;8.70;1.50;;;;;;;22.94;39.75;99818.25;4469113;32;34306;-52
2021/04/13 06:58:49;;;;;;;6.70;1.75;;;;;;;22.97;39.73;99814.28;4468759;32;33330;-50
2021/04/13 07:01:29;;;;;;;7.75;1.87;;;;;;;22.95;39.78;99817.22;4477216;32;33738;-51
2021/04/13 07:04:12;;;;;;;12.48;1.87;;;;;;;22.96;39.85;99812.63;4473004;32;34065;-51
2021/04/13 07:06:43;;;;;;;8.77;2.15;;;;;;;22.95;39.96;99810.97;4462214;32;34385;-52
2021/04/13 07:09:15;;;;;;;8.35;1.95;;;;;;;22.94;40.02;99820.16;4466789;32;34248;-51
2021/04/13 07:12:04;;;;;;;6.82;1.45;;;;;;;22.94;40.01;99823.69;4466757;32;34532;-52
2021/04/13 07:14:36;;;;;;;7.45;2.20;;;;;;;22.95;40.00;99822.66;4465476;32;33820;-56
2021/04/13 07:17:26;;;;;;;11.15;1.77;;;;;;;22.96;40.08;99829.78;4468925;32;33710;-49
2021/04/13 07:19:57;;;;;;;6.65;1.70;;;;;;;22.95;40.05;99811.78;4467789;32;33315;-52
2021/04/13 07:22:32;;;;;;;6.03;1.67;;;;;;;22.95;40.07;99817.22;4467463;32;34472;-50
2021/04/13 07:25:14;;;;;;;5.80;1.83;;;;;;;22.95;40.08;99813.69;4464461;32;34105;-50
2021/04/13 07:27:54;;;;;;;5.75;1.70;;;;;;;22.96;40.11;99804.47;4483219;32;34934;-51
2021/04/13 07:30:38;;;;;;;11.73;1.67;;;;;;;22.95;40.17;99806.34;4484784;32;34149;-55
2021/04/13 07:33:06;;;;;;;4.95;1.55;;;;;;;22.94;40.26;99810.09;4483218;32;33632;-52
2021/04/13 07:35:35;;;;;;;5.35;1.70;;;;;;;22.94;40.22;99799.22;4483334;32;33578;-56
2021/04/13 07:38:11;;;;;;;7.87;1.75;;;;;;;22.95;40.19;99809.06;4484641;32;33764;-50
2021/04/13 07:40:40;;;;;;;9.15;1.70;;;;;;;22.97;40.20;99826.00;4471663;32;33361;-52
2021/04/13 07:43:15;;;;;;;11.18;1.50;;;;;;;22.95;40.26;99817.22;4472987;32;34087;-50
2021/04/13 07:46:09;;;;;;;5.30;1.50;;;;;;;22.95;40.25;99803.63;4470395;32;33943;-51
2021/04/13 07:48:39;;;;;;;3.42;1.20;;;;;;;22.97;40.21;99806.12;4473970;32;34910;-52
2021/04/13 07:51:26;;;;;;;;;;;;;;;22.96;40.24;99804.47;4475245;32;32845;-51
2021/04/13 07:54:02;;;;;;;5.35;1.33;;;;;;;23.04;40.05;99813.16;4468105;32;33960;-55
2021/04/13 07:56:47;;;;;;;7.32;1.70;;;;;;;22.97;40.19;99806.12;4468551;32;34738;-50
2021/04/13 07:59:19;;;;;;;6.85;1.73;;;;;;;22.97;40.17;99815.09;4468420;32;34832;-52
2021/04/13 08:01:47;;;;;;;6.10;1.48;;;;;;;22.94;40.24;99815.53;4468711;32;33291;-49
2021/04/13 08:04:20;;;;;;;6.45;1.33;;;;;;;22.95;40.23;99806.34;4476761;32;33800;-48
2021/04/13 08:06:52;;;;;;;7.10;1.70;;;;;;;22.94;40.19;99815.53;4481026;32;33630;-50
2021/04/13 08:09:44;;;;;;;8.55;1.58;;;;;;;22.93;40.08;99811.16;4484480;32;33911;-53
2021/04/13 08:12:23;;;;;;;5.87;1.25;;;;;;;22.93;40.03;99808.44;4484539;32;33370;-53
2021/04/13 08:14:54;;;;;;;7.65;1.60;;;;;;;22.93;39.96;99797.56;4484536;32;33879;-52
2021/04/13 08:17:23;;;;;;;3.42;1.12;;;;;;;22.89;39.97;99791.72;4484519;32;33716;-50
2021/04/13 08:20:20;;;;;;;6.00;1.42;;;;;;;22.89;39.88;99802.59;4484349;32;34699;-49
2021/04/13 08:23:02;;;;;;;5.30;1.87;;;;;;;22.92;39.87;99823.94;4482243;32;33532;-49
2021/04/13 08:25:44;;;;;;;6.87;1.67;;;;;;;22.88;39.90;99817.25;4484180;32;33519;-50
2021/04/13 08:28:28;;;;;;;10.25;1.85;;;;;;;22.87;39.88;99821.03;4483033;32;33963;-49
2021/04/13 08:34:24;;;;;;;8.27;1.87;;;;;;;22.84;39.76;99812.47;4476676;32;33318;-52
2021/04/13 08:36:54;;;;;;;9.02;2.42;;;;;;;22.85;39.74;99812.25;4472075;32;33766;-51
2021/04/13 08:39:41;;;;;;;8.57;1.73;;;;;;;22.88;39.76;99832.72;4472592;32;35035;-53
2021/04/13 08:42:24;;;;;;;5.82;1.90;;;;;;;22.98;39.79;99833.09;4484070;32;34489;-50
2021/04/13 08:44:59;;;;;;;7.78;1.48;;;;;;;23.12;39.64;99848.25;4461216;32;33310;-52
2021/04/13 08:47:47;;;;;;;8.98;1.65;;;;;;;23.27;39.49;99836.16;4470610;32;33854;-53
2021/04/13 08:50:35;;;;;;;7.20;1.52;;;;;;;23.40;39.43;99822.44;4468499;32;33784;-52
2021/04/13 08:53:34;;;;;;;7.62;1.60;;;;;;;23.59;39.26;99824.09;4468117;32;33838;-54
2021/04/13 08:56:31;;;;;;;10.55;1.80;;;;;;;23.75;39.12;99817.25;4468124;32;33994;-55
2021/04/13 08:59:00;;;;;;;5.20;1.50;;;;;;;23.91;38.94;99821.25;4474396;32;33799;-53
2021/04/13 09:01:31;;;;;;;9.07;1.70;;;;;;;24.08;38.66;99816.00;4483295;32;33846;-52
2021/04/13 09:03:59;;;;;;;10.32;1.92;;;;;;;24.24;38.48;99820.78;4477634;32;33764;-48
2021/04/13 09:06:52;;;;;;;9.13;1.83;;;;;;;24.36;38.35;99824.44;4466827;32;33413;-51
2021/04/13 09:09:45;;;;;;;7.37;1.48;;;;;;;24.49;38.25;99819.84;4466702;32;33854;-55
2021/04/13 09:12:31;;;;;;;8.63;1.60;;;;;;;24.61;38.07;99818.81;4468176;32;33798;-56
2021/04/13 09:15:20;;;;;;;12.98;2.03;;;;;;;24.72;37.97;99813.62;4467979;32;34127;-57
2021/04/13 09:17:59;;;;;;;6.07;1.80;;;;;;;24.85;37.81;99818.84;4468174;32;33503;-52
2021/04/13 09:20:47;;;;;;;12.23;1.75;;;;;;;24.93;37.75;99808.41;4467981;32;33542;-50
2021/04/13 09:23:28;;;;;;;6.53;1.80;;;;;;;25.02;37.65;99813.53;4468013;32;33434;-54
2021/04/13 09:26:04;;;;;;;7.10;1.73;;;;;;;25.07;37.57;99810.91;4466984;32;33890;-50
2021/04/13 09:28:46;;;;;;;5.28;1.65;;;;;;;25.14;37.49;99809.78;4477876;32;33241;-52
2021/04/13 09:31:13;;;;;;;6.12;1.45;;;;;;;25.24;37.39;99798.25;4482469;32;34221;-52
2021/04/13 09:33:42;;;;;;;4.32;1.20;;;;;;;25.29;37.32;99813.91;4472055;32;33824;-55
2021/04/13 09:36:22;;;;;;;6.97;1.30;;;;;;;25.33;37.31;99809.63;4467776;32;33794;-55
2021/04/13 09:39:30;;;;;;;5.28;1.42;;;;;;;25.36;37.26;99815.44;4465754;32;33301;-53
2021/04/13 09:42:19;;;;;;;8.95;1.70;;;;;;;25.42;36.99;99802.75;4475924;32;33953;-50
2021/04/13 09:44:50;;;;;;;6.55;1.77;;;;;;;25.40;37.05;99802.97;4466196;32;34710;-55
2021/04/13 09:47:53;;;;;;;9.82;2.12;;;;;;;25.38;37.15;99791.47;4467535;32;33836;-57
2021/04/13 09:50:41;;;;;;;4.22;1.30;;;;;;;25.42;37.14;99803.56;4455410;32;33022;-53
2021/04/13 09:53:20;;;;;;;8.55;2.00;;;;;;;25.39;37.21;99789.56;4467719;32;34983;-54
2021/04/13 09:55:54;;;;;;;7.97;1.85;;;;;;;25.35;37.29;99786.47;4472705;32;33772;-58
2021/04/13 09:58:46;;;;;;;7.93;1.73;;;;;;;25.32;37.41;99780.66;4466074;32;33666;-55
2021/04/13 10:01:48;;;;;;;6.28;1.65;;;;;;;25.32;37.48;99772.44;4469639;32;34023;-54
2021/04/13 10:04:21;;;;;;;10.23;1.92;;;;;;;25.30;37.55;99771.87;4470912;32;89350;-55
2021/04/13 10:07:26;;;;;;;5.43;1.52;;;;;;;25.24;37.62;99760.00;4477020;32;34618;-57
2021/04/13 10:09:53;;;;;;;5.43;1.65;;;;;;;25.23;37.64;99769.28;4473349;32;33761;-54
2021/04/13 10:12:40;;;;;;;9.38;1.50;;;;;;;25.16;37.72;99771.28;4457959;32;34093;-52
2021/04/13 10:15:25;;;;;;;8.98;1.40;;;;;;;25.13;37.76;99769.88;4470573;32;33686;-57
2021/04/13 10:18:17;;;;;;;3.67;1.23;;;;;;;25.12;37.82;99767.38;4483309;32;34019;-51
2021/04/13 10:21:20;;;;;;;6.28;1.67;;;;;;;25.08;37.85;99763.47;4471515;32;33650;-49
2021/04/13 10:24:19;;;;;;;7.15;1.50;;;;;;;25.01;37.94;99762.72;4432840;32;33307;-51
2021/04/13 10:26:53;;;;;;;7.62;1.48;;;;;;;24.99;38.02;99752.03;4467316;32;33799;-52
2021/04/13 10:29:35;;;;;;;7.50;1.77;;;;;;;24.93;38.12;99758.44;4467327;32;34959;-54
2021/04/13 10:32:41;;;;;;;6.03;1.60;;;;;;;24.91;38.15;99760.59;4466028;32;34544;-52
2021/04/13 10:35:37;;;;;;;5.68;1.55;;;;;;;24.88;38.30;99755.59;4467288;32;33212;-50
2021/04/13 10:38:11;;;;;;;5.93;1.85;;;;;;;24.83;38.46;99752.75;4466166;32;33854;-50
2021/04/13 10:41:12;;;;;;;9.75;1.52;;;;;;;24.76;38.66;99749.31;4478275;32;33586;-54
2021/04/13 10:44:11;;;;;;;5.53;1.80;;;;;;;24.72;38.41;99740.78;4471744;32;33500;-56
2021/04/13 10:47:08;;;;;;;5.70;1.20;;;;;;;24.71;38.30;99743.72;4456692;31;33310;-55
2021/04/13 10:49:58;;;;;;;5.43;1.37;;;;;;;24.69;38.33;99736.63;4482699;32;33845;-51
2021/04/13 10:52:50;;;;;;;7.03;1.33;;;;;;;24.58;38.46;99742.91;4468753;32;34721;-54
2021/04/13 10:55:21;;;;;;;5.55;1.60;;;;;;;24.55;38.61;99737.09;4467865;32;33746;-55
2021/04/13 10:58:06;;;;;;;5.72;1.60;;;;;;;24.50;38.67;99745.12;4475747;32;34047;-49
2021/04/13 11:01:14;;;;;;;6.37;1.55;;;;;;;24.51;38.68;99733.16;4484630;32;33626;-49
2021/04/13 11:03:58;;;;;;;5.70;1.70;;;;;;;24.47;38.80;99732.78;4483081;32;33858;-50
2021/04/13 11:06:54;;;;;;;5.25;1.37;;;;;;;24.42;38.91;99735.41;4483379;32;33930;-55
2021/04/13 11:09:30;;;;;;;8.68;1.50;;;;;;;24.40;39.01;99734.81;4472562;32;34460;-55
2021/04/13 11:12:22;;;;;;;5.87;1.25;;;;;;;24.38;39.12;99742.37;4469064;32;33770;-52
2021/04/13 11:15:16;;;;;;;5.82;1.60;;;;;;;24.36;39.12;99744.50;4468965;32;33909;-49
2021/04/13 11:17:59;;;;;;;6.10;1.17;;;;;;;24.35;39.12;99737.38;4469014;32;33682;-54
2021/04/13 11:20:45;;;;;;;7.18;1.50;;;;;;;24.30;39.26;99742.72;4468528;32;33132;-55
2021/04/13 11:23:37;;;;;;;7.62;1.62;;;;;;;24.32;39.18;99740.56;4468910;32;33871;-52
2021/04/13 11:26:32;;;;;;;4.82;1.80;;;;;;;24.29;39.25;99741.03;4467755;32;34322;-54
2021/04/13 11:29:15;;;;;;;7.12;1.48;;;;;;;24.26;39.31;99734.16;4469083;32;33762;-56
2021/04/13 11:32:15;;;;;;;4.45;1.45;;;;;;;24.21;39.41;99734.03;4469141;32;34358;-49
2021/04/13 11:35:03;;;;;;;6.68;1.33;;;;;;;24.20;39.44;99737.78;4472834;32;33893;-54
2021/04/13 11:37:39;;;;;;;7.87;1.55;;;;;;;24.16;39.44;99732.00;4467640;32;33934;-54
2021/04/13 11:40:27;;;;;;;4.37;1.40;;;;;;;24.12;39.37;99724.53;4467724;32;33616;-54
2021/04/13 11:42:57;;;;;;;7.80;1.42;;;;;;;24.11;39.45;99726.41;4480880;32;33978;-56
2021/04/13 11:45:24;;;;;;;;;;;;;;;24.09;39.49;99717.63;4468624;32;33538;-54
2021/04/13 11:48:42;;;;;;;6.53;1.48;;;;;;;24.18;39.25;99727.13;4474909;32;33864;-50
2021/04/13 11:51:17;;;;;;;7.35;1.60;;;;;;;24.12;39.37;99721.78;4463805;31;33562;-54
2021/04/13 11:53:45;;;;;;;5.30;1.55;;;;;;;24.07;39.54;99721.66;4483232;32;33078;-48
2021/04/13 11:56:22;;;;;;;2.35;1.02;;;;;;;24.02;39.59;99725.09;4484218;32;33797;-55
2021/04/13 11:59:12;;;;;;;5.15;1.52;;;;;;;24.04;39.55;99720.22;4484290;32;34661;-50
2021/04/13 12:01:57;;;;;;;5.85;1.20;;;;;;;24.05;39.58;99726.50;4465849;32;34806;-49
2021/04/13 12:04:50;;;;;;;4.57;1.30;;;;;;;24.01;39.61;99717.94;4467918;32;33578;-51
2021/04/13 12:08:03;;;;;;;4.20;1.37;;;;;;;24.01;39.62;99728.03;4467239;32;33414;-52
2021/04/13 12:10:30;;;;;;;3.85;1.30;;;;;;;23.98;39.68;99726.63;4454706;32;33483;-54
2021/04/13 12:13:04;;;;;;;5.50;1.40;;;;;;;23.97;39.74;99726.81;4473856;32;34726;-52
2021/04/13 12:15:35;;;;;;;4.90;1.20;;;;;;;23.94;39.79;99725.41;4472907;32;33293;-55
2021/04/13 12:18:34;;;;;;;7.28;1.50;;;;;;;23.92;39.78;99722.94;4472169;32;33725;-55
2021/04/13 12:21:28;;;;;;;8.35;1.40;;;;;;;23.94;39.79;99711.78;4470276;32;33562;-54
2021/04/13 12:24:00;;;;;;;8.07;1.67;;;;;;;23.93;39.93;99705.50;4469976;32;33627;-55
2021/04/13 12:26:39;;;;;;;6.60;1.55;;;;;;;23.89;39.88;99708.94;4481468;32;34132;-55